createdAt,value
2018-09-01T00:00:50.526Z,12.90
2018-09-01T00:03:18.970Z,12.90
2018-09-01T00:05:47.411Z,12.90
2018-09-01T00:08:15.938Z,12.90
2018-09-01T00:10:44.421Z,12.80
2018-09-01T00:13:12.865Z,12.80
2018-09-01T00:15:41.410Z,12.80
2018-09-01T00:18:09.845Z,12.70
2018-09-01T00:20:38.294Z,12.70
2018-09-01T00:23:06.781Z,12.70
2018-09-01T00:25:35.242Z,12.70
2018-09-01T00:28:03.696Z,12.70
2018-09-01T00:30:32.185Z,12.70
2018-09-01T00:33:00.629Z,12.70
2018-09-01T00:35:29.077Z,12.70
2018-09-01T00:38:02.874Z,12.70
2018-09-01T00:40:31.325Z,12.70
2018-09-01T00:43:00.679Z,12.60
2018-09-01T00:45:29.719Z,12.60
2018-09-01T00:47:58.182Z,12.60
2018-09-01T00:50:26.953Z,12.60
2018-09-01T00:52:55.498Z,12.60
2018-09-01T00:55:29.090Z,12.60
2018-09-01T00:57:57.595Z,12.60
2018-09-01T01:00:26.093Z,12.60
2018-09-01T01:02:54.572Z,12.60
2018-09-01T01:05:23.191Z,12.60
2018-09-01T01:07:51.654Z,12.60
2018-09-01T01:10:20.095Z,12.60
2018-09-01T01:12:49.266Z,12.50
2018-09-01T01:15:18.046Z,12.50
2018-09-01T01:17:46.518Z,12.50
2018-09-01T01:20:15.074Z,12.50
2018-09-01T01:22:43.539Z,12.60
2018-09-01T01:25:11.970Z,12.50
2018-09-01T01:27:40.527Z,12.60
2018-09-01T01:30:09.174Z,12.50
2018-09-01T01:32:37.782Z,12.50
2018-09-01T01:35:06.358Z,12.50
2018-09-01T01:37:35.900Z,12.50
2018-09-01T01:40:05.118Z,12.40
2018-09-01T01:42:35.787Z,12.40
2018-09-01T01:45:04.363Z,12.40
2018-09-01T01:47:36.974Z,12.40
2018-09-01T01:50:06.632Z,12.40
2018-09-01T01:52:35.124Z,12.40
2018-09-01T01:55:03.632Z,12.40
2018-09-01T01:57:32.138Z,12.40
2018-09-01T02:00:00.558Z,12.40
2018-09-01T02:02:29.023Z,12.40
2018-09-01T02:04:57.466Z,12.40
2018-09-01T02:07:25.897Z,12.40
2018-09-01T02:09:54.386Z,12.40
2018-09-01T02:12:22.813Z,12.40
2018-09-01T02:14:51.243Z,12.40
2018-09-01T02:17:19.772Z,12.40
2018-09-01T02:19:48.195Z,12.40
2018-09-01T02:22:16.694Z,12.40
2018-09-01T02:24:45.246Z,12.40
2018-09-01T02:27:13.705Z,12.40
2018-09-01T02:29:42.166Z,12.40
2018-09-01T02:32:10.667Z,12.40
2018-09-01T02:34:39.159Z,12.50
2018-09-01T02:37:07.626Z,12.40
2018-09-01T02:39:36.115Z,12.40
2018-09-01T02:42:04.587Z,12.40
2018-09-01T02:44:33.060Z,12.40
2018-09-01T02:47:01.605Z,12.40
2018-09-01T02:49:30.083Z,12.40
2018-09-01T02:51:58.542Z,12.50
2018-09-01T02:54:27.098Z,12.50
2018-09-01T02:56:55.602Z,12.60
2018-09-01T02:59:24.062Z,12.60
2018-09-01T03:01:52.586Z,12.60
2018-09-01T03:04:21.055Z,12.70
2018-09-01T03:06:53.655Z,12.70
2018-09-01T03:09:22.558Z,12.80
2018-09-01T03:11:51.826Z,12.80
2018-09-01T03:14:20.863Z,12.90
2018-09-01T03:16:49.344Z,12.90
2018-09-01T03:19:17.793Z,12.90
2018-09-01T03:21:46.321Z,12.90
2018-09-01T03:24:14.807Z,13.00
2018-09-01T03:26:43.287Z,13.00
2018-09-01T03:29:11.847Z,13.10
2018-09-01T03:31:40.293Z,13.10
2018-09-01T03:34:08.774Z,13.10
2018-09-01T03:36:37.270Z,13.20
2018-09-01T03:39:07.947Z,13.20
2018-09-01T03:41:36.958Z,13.20
2018-09-01T03:44:05.579Z,13.20
2018-09-01T03:46:34.065Z,13.30
2018-09-01T03:49:03.450Z,13.30
2018-09-01T03:51:31.926Z,13.30
2018-09-01T03:54:00.362Z,13.40
2018-09-01T03:56:28.834Z,13.40
2018-09-01T03:58:57.370Z,13.40
2018-09-01T04:01:25.803Z,13.50
2018-09-01T04:03:54.234Z,13.40
2018-09-01T04:06:22.703Z,13.50
2018-09-01T04:08:51.131Z,13.50
2018-09-01T04:11:19.592Z,13.50
2018-09-01T04:13:48.061Z,13.50
2018-09-01T04:16:16.541Z,13.60
2018-09-01T04:18:44.990Z,13.60
2018-09-01T04:21:13.511Z,13.60
2018-09-01T04:23:41.956Z,13.70
2018-09-01T04:26:10.425Z,13.70
2018-09-01T04:28:38.898Z,13.70
2018-09-01T04:31:07.342Z,13.80
2018-09-01T04:33:35.787Z,13.80
2018-09-01T04:36:04.297Z,13.80
2018-09-01T04:38:32.743Z,13.90
2018-09-01T04:41:01.254Z,13.90
2018-09-01T04:43:29.774Z,13.90
2018-09-01T04:45:58.246Z,13.90
2018-09-01T04:48:26.718Z,13.90
2018-09-01T04:50:55.210Z,14.00
2018-09-01T04:53:23.710Z,14.10
2018-09-01T04:55:52.179Z,14.10
2018-09-01T04:58:20.715Z,14.20
2018-09-01T05:00:49.217Z,14.20
2018-09-01T05:03:17.680Z,14.20
2018-09-01T05:05:46.187Z,14.30
2018-09-01T05:08:14.637Z,14.30
2018-09-01T05:10:43.371Z,14.40
2018-09-01T05:13:11.860Z,14.40
2018-09-01T05:15:40.406Z,14.40
2018-09-01T05:18:08.898Z,14.50
2018-09-01T05:20:37.405Z,14.50
2018-09-01T05:23:05.922Z,14.60
2018-09-01T05:25:34.442Z,14.60
2018-09-01T05:28:02.946Z,14.70
2018-09-01T05:30:31.398Z,14.70
2018-09-01T05:33:00.176Z,14.70
2018-09-01T05:35:28.718Z,14.80
2018-09-01T05:37:57.174Z,14.80
2018-09-01T05:40:25.639Z,14.80
2018-09-01T05:42:54.194Z,14.90
2018-09-01T05:45:22.655Z,15.00
2018-09-01T05:47:51.139Z,15.00
2018-09-01T05:50:19.698Z,15.10
2018-09-01T05:52:48.176Z,15.20
2018-09-01T05:55:16.633Z,15.20
2018-09-01T05:57:45.169Z,15.30
2018-09-01T06:00:13.719Z,15.40
2018-09-01T06:02:42.173Z,15.50
2018-09-01T06:05:10.658Z,15.50
2018-09-01T06:07:39.154Z,15.50
2018-09-01T06:10:09.498Z,15.50
2018-09-01T06:12:37.974Z,15.50
2018-09-01T06:15:06.780Z,15.60
2018-09-01T06:17:35.431Z,15.60
2018-09-01T06:20:03.956Z,15.70
2018-09-01T06:22:32.431Z,15.70
2018-09-01T06:25:01.040Z,15.80
2018-09-01T06:27:34.896Z,15.80
2018-09-01T06:30:03.882Z,15.90
2018-09-01T06:32:32.370Z,15.90
2018-09-01T06:35:00.859Z,15.90
2018-09-01T06:37:29.311Z,16.00
2018-09-01T06:39:57.746Z,16.10
2018-09-01T06:42:26.274Z,16.00
2018-09-01T06:44:54.978Z,16.10
2018-09-01T06:47:23.405Z,16.10
2018-09-01T06:49:51.906Z,16.10
2018-09-01T06:52:20.368Z,16.20
2018-09-01T06:54:48.814Z,16.20
2018-09-01T06:57:17.287Z,16.30
2018-09-01T06:59:45.718Z,16.30
2018-09-01T07:02:15.055Z,16.30
2018-09-01T07:04:43.586Z,16.30
2018-09-01T07:07:12.085Z,16.30
2018-09-01T07:09:40.708Z,16.30
2018-09-01T07:12:09.201Z,16.40
2018-09-01T07:14:37.656Z,16.40
2018-09-01T07:17:06.302Z,16.50
2018-09-01T07:19:35.767Z,16.50
2018-09-01T07:22:04.222Z,16.50
2018-09-01T07:24:32.678Z,16.60
2018-09-01T07:27:01.178Z,16.70
2018-09-01T07:29:29.638Z,16.70
2018-09-01T07:31:58.095Z,16.70
2018-09-01T07:34:26.552Z,16.80
2018-09-01T07:36:55.470Z,16.90
2018-09-01T07:39:23.891Z,16.90
2018-09-01T07:41:52.486Z,16.90
2018-09-01T07:44:20.939Z,16.90
2018-09-01T07:46:49.694Z,17.00
2018-09-01T07:49:18.426Z,17.00
2018-09-01T07:51:46.882Z,17.10
2018-09-01T07:54:15.322Z,17.10
2018-09-01T07:56:43.839Z,17.10
2018-09-01T07:59:12.278Z,17.10
2018-09-01T08:01:40.726Z,17.10
2018-09-01T08:04:09.222Z,17.10
2018-09-01T08:06:37.682Z,17.10
2018-09-01T08:09:07.959Z,17.10
2018-09-01T08:11:36.438Z,17.10
2018-09-01T08:14:05.036Z,17.10
2018-09-01T08:16:33.382Z,17.00
2018-09-01T08:19:01.986Z,17.00
2018-09-01T08:21:30.438Z,17.10
2018-09-01T08:23:58.874Z,17.00
2018-09-01T08:26:27.416Z,17.00
2018-09-01T08:28:55.863Z,16.90
2018-09-01T08:31:24.286Z,16.90
2018-09-01T08:33:52.818Z,16.80
2018-09-01T08:36:21.257Z,16.90
2018-09-01T08:38:49.703Z,16.90
2018-09-01T08:41:18.230Z,17.00
2018-09-01T08:43:46.673Z,17.10
2018-09-01T08:46:15.108Z,17.20
2018-09-01T08:48:43.582Z,17.40
2018-09-01T08:51:12.099Z,17.60
2018-09-01T08:53:40.529Z,17.80
2018-09-01T08:56:09.006Z,18.10
2018-09-01T08:58:37.470Z,18.20
2018-09-01T09:01:05.919Z,18.30
2018-09-01T09:03:34.462Z,18.40
2018-09-01T09:06:02.902Z,18.40
2018-09-01T09:08:31.338Z,18.40
2018-09-01T09:10:59.858Z,18.50
2018-09-01T09:13:28.490Z,18.60
2018-09-01T09:15:56.954Z,18.80
2018-09-01T09:18:25.545Z,18.80
2018-09-01T09:20:53.985Z,18.80
2018-09-01T09:23:22.444Z,18.70
2018-09-01T09:25:50.967Z,18.70
2018-09-01T09:28:19.430Z,18.70
2018-09-01T09:30:47.887Z,18.80
2018-09-01T09:33:16.601Z,18.70
2018-09-01T09:35:45.059Z,18.70
2018-09-01T09:38:13.539Z,18.80
2018-09-01T09:40:42.056Z,18.90
2018-09-01T09:43:10.578Z,19.00
2018-09-01T09:45:39.084Z,19.10
2018-09-01T09:48:07.683Z,19.20
2018-09-01T09:50:36.179Z,19.30
2018-09-01T09:53:04.975Z,19.30
2018-09-01T09:55:33.454Z,19.40
2018-09-01T09:58:01.890Z,19.40
2018-09-01T10:00:35.558Z,19.50
2018-09-01T10:03:04.001Z,19.40
2018-09-01T10:05:32.508Z,19.40
2018-09-01T10:08:00.960Z,19.30
2018-09-01T10:10:29.444Z,19.20
2018-09-01T10:12:57.978Z,19.10
2018-09-01T10:15:26.474Z,19.00
2018-09-01T10:17:54.910Z,18.80
2018-09-01T10:20:23.404Z,18.70
2018-09-01T10:22:51.862Z,18.70
2018-09-01T10:25:20.307Z,18.50
2018-09-01T10:27:48.751Z,18.40
2018-09-01T10:30:17.218Z,18.40
2018-09-01T10:32:45.734Z,18.30
2018-09-01T10:35:14.219Z,18.40
2018-09-01T10:37:42.738Z,18.30
2018-09-01T10:40:11.194Z,18.20
2018-09-01T10:42:39.806Z,18.20
2018-09-01T10:45:08.306Z,18.20
2018-09-01T10:47:36.762Z,18.30
2018-09-01T10:50:05.278Z,18.30
2018-09-01T10:52:33.876Z,18.30
2018-09-01T10:55:02.354Z,18.30
2018-09-01T10:57:30.990Z,18.20
2018-09-01T10:59:59.478Z,18.20
2018-09-01T11:02:27.952Z,18.20
2018-09-01T11:04:56.429Z,18.40
2018-09-01T11:07:24.966Z,18.70
2018-09-01T11:09:53.460Z,18.90
2018-09-01T11:12:21.996Z,19.10
2018-09-01T11:14:50.502Z,19.30
2018-09-01T11:17:18.981Z,19.50
2018-09-01T11:19:47.549Z,19.50
2018-09-01T11:22:16.165Z,19.60
2018-09-01T11:24:44.626Z,19.60
2018-09-01T11:27:13.109Z,19.60
2018-09-01T11:29:41.638Z,19.50
2018-09-01T11:32:10.110Z,19.50
2018-09-01T11:34:38.629Z,19.40
2018-09-01T11:37:07.141Z,19.30
2018-09-01T11:39:35.607Z,19.20
2018-09-01T11:42:04.059Z,19.20
2018-09-01T11:44:32.542Z,19.10
2018-09-01T11:47:01.006Z,19.00
2018-09-01T11:49:29.488Z,18.90
2018-09-01T11:51:58.179Z,18.80
2018-09-01T11:54:26.670Z,18.70
2018-09-01T11:56:55.265Z,18.70
2018-09-01T11:59:23.770Z,18.70
2018-09-01T12:01:52.345Z,18.60
2018-09-01T12:04:20.786Z,18.50
2018-09-01T12:06:49.272Z,18.50
2018-09-01T12:09:17.792Z,18.40
2018-09-01T12:11:46.278Z,18.40
2018-09-01T12:14:14.730Z,18.30
2018-09-01T12:16:43.187Z,18.20
2018-09-01T12:19:11.634Z,18.00
2018-09-01T12:21:40.156Z,18.00
2018-09-01T12:24:08.627Z,17.90
2018-09-01T12:26:37.095Z,17.80
2018-09-01T12:29:05.766Z,17.80
2018-09-01T12:31:34.254Z,17.80
2018-09-01T12:34:02.770Z,17.70
2018-09-01T12:36:32.019Z,17.70
2018-09-01T12:39:00.513Z,17.70
2018-09-01T12:41:29.835Z,17.80
2018-09-01T12:43:58.583Z,17.80
2018-09-01T12:46:27.095Z,17.90
2018-09-01T12:48:55.598Z,18.00
2018-09-01T12:51:24.088Z,18.10
2018-09-01T12:53:52.587Z,18.20
2018-09-01T12:56:21.671Z,18.40
2018-09-01T12:58:50.247Z,18.50
2018-09-01T13:01:19.522Z,18.60
2018-09-01T13:03:48.759Z,18.60
2018-09-01T13:06:17.386Z,18.60
2018-09-01T13:08:45.879Z,18.60
2018-09-01T13:11:14.387Z,18.60
2018-09-01T13:13:42.910Z,18.60
2018-09-01T13:16:11.375Z,18.60
2018-09-01T13:18:39.826Z,18.50
2018-09-01T13:21:08.375Z,18.60
2018-09-01T13:23:36.835Z,18.60
2018-09-01T13:26:05.373Z,18.60
2018-09-01T13:28:34.003Z,18.60
2018-09-01T13:31:02.487Z,18.60
2018-09-01T13:33:30.952Z,18.60
2018-09-01T13:35:59.643Z,18.60
2018-09-01T13:38:28.138Z,18.50
2018-09-01T13:40:56.684Z,18.50
2018-09-01T13:43:25.290Z,18.50
2018-09-01T13:45:53.879Z,18.40
2018-09-01T13:48:22.335Z,18.40
2018-09-01T13:50:50.904Z,18.40
2018-09-01T13:53:19.648Z,18.40
2018-09-01T13:55:48.098Z,18.50
2018-09-01T13:58:16.606Z,18.60
2018-09-01T14:00:45.066Z,18.60
2018-09-01T14:03:13.490Z,18.70
2018-09-01T14:05:41.981Z,18.80
2018-09-01T14:08:10.425Z,18.70
2018-09-01T14:10:38.934Z,18.70
2018-09-01T14:13:07.452Z,18.80
2018-09-01T14:15:35.922Z,18.80
2018-09-01T14:18:04.386Z,18.70
2018-09-01T14:20:32.854Z,18.70
2018-09-01T14:23:01.291Z,18.80
2018-09-01T14:25:29.758Z,18.80
2018-09-01T14:27:58.255Z,18.90
2018-09-01T14:30:26.697Z,19.00
2018-09-01T14:32:55.217Z,19.00
2018-09-01T14:35:23.690Z,19.00
2018-09-01T14:37:52.141Z,19.00
2018-09-01T14:40:20.578Z,19.00
2018-09-01T14:42:49.122Z,19.00
2018-09-01T14:45:17.610Z,19.00
2018-09-01T14:47:46.066Z,18.90
2018-09-01T14:50:14.560Z,18.90
2018-09-01T14:52:42.991Z,18.90
2018-09-01T14:55:11.466Z,18.80
2018-09-01T14:57:39.972Z,18.80
2018-09-01T15:00:08.511Z,18.70
2018-09-01T15:02:36.945Z,18.60
2018-09-01T15:05:05.519Z,18.60
2018-09-01T15:07:33.962Z,18.50
2018-09-01T15:10:02.445Z,18.30
2018-09-01T15:12:30.982Z,18.20
2018-09-01T15:14:59.442Z,18.00
2018-09-01T15:17:28.142Z,17.90
2018-09-01T15:19:56.713Z,17.90
2018-09-01T15:22:25.196Z,17.80
2018-09-01T15:24:53.661Z,17.70
2018-09-01T15:27:22.170Z,17.60
2018-09-01T15:29:50.582Z,17.60
2018-09-01T15:32:19.014Z,17.50
2018-09-01T15:34:47.494Z,17.50
2018-09-01T15:37:15.943Z,17.50
2018-09-01T15:39:44.386Z,17.40
2018-09-01T15:42:12.887Z,17.50
2018-09-01T15:44:41.432Z,17.50
2018-09-01T15:47:10.328Z,17.50
2018-09-01T15:49:39.079Z,17.40
2018-09-01T15:52:07.566Z,17.40
2018-09-01T15:54:36.626Z,17.40
2018-09-01T15:57:05.386Z,17.40
2018-09-01T15:59:33.882Z,17.30
2018-09-01T16:02:02.434Z,17.30
2018-09-01T16:04:31.438Z,17.30
2018-09-01T16:06:59.982Z,17.20
2018-09-01T16:09:28.465Z,17.20
2018-09-01T16:11:58.655Z,17.20
2018-09-01T16:14:27.228Z,17.20
2018-09-01T16:16:55.686Z,17.20
2018-09-01T16:19:24.197Z,17.10
2018-09-01T16:21:52.682Z,17.10
2018-09-01T16:24:21.186Z,17.10
2018-09-01T16:26:49.778Z,17.10
2018-09-01T16:29:18.266Z,17.10
2018-09-01T16:31:46.738Z,17.00
2018-09-01T16:34:15.302Z,17.00
2018-09-01T16:36:43.759Z,17.00
2018-09-01T16:39:12.200Z,16.90
2018-09-01T16:41:40.690Z,16.90
2018-09-01T16:44:09.123Z,16.90
2018-09-01T16:46:37.575Z,16.90
2018-09-01T16:49:06.072Z,16.80
2018-09-01T16:51:35.031Z,16.80
2018-09-01T16:54:03.495Z,16.80
2018-09-01T16:56:32.027Z,16.80
2018-09-01T16:59:00.477Z,16.70
2018-09-01T17:01:28.929Z,16.70
2018-09-01T17:03:57.427Z,16.70
2018-09-01T17:06:25.964Z,16.70
2018-09-01T17:08:54.403Z,16.70
2018-09-01T17:11:22.919Z,16.70
2018-09-01T17:13:51.374Z,16.60
2018-09-01T17:16:19.845Z,16.60
2018-09-01T17:18:48.346Z,16.50
2018-09-01T17:21:16.761Z,16.50
2018-09-01T17:23:45.193Z,16.50
2018-09-01T17:26:13.688Z,16.50
2018-09-01T17:28:42.110Z,16.40
2018-09-01T17:31:10.642Z,16.40
2018-09-01T17:33:39.251Z,16.40
2018-09-01T17:36:07.702Z,16.40
2018-09-01T17:38:36.166Z,16.30
2018-09-01T17:41:04.763Z,16.30
2018-09-01T17:43:33.237Z,16.30
2018-09-01T17:46:01.706Z,16.20
2018-09-01T17:48:30.210Z,16.20
2018-09-01T17:50:58.674Z,16.20
2018-09-01T17:53:27.154Z,16.20
2018-09-01T17:55:55.670Z,16.10
2018-09-01T17:58:24.131Z,16.10
2018-09-01T18:00:52.634Z,16.10
2018-09-01T18:03:21.140Z,16.10
2018-09-01T18:05:49.593Z,16.10
2018-09-01T18:08:18.057Z,16.10
2018-09-01T18:12:16.016Z,16.00
2018-09-01T18:14:44.499Z,16.00
2018-09-01T18:17:13.050Z,16.00
2018-09-01T18:19:41.610Z,16.00
2018-09-01T18:22:10.118Z,15.90
2018-09-01T18:24:38.586Z,15.90
2018-09-01T18:27:07.150Z,15.90
2018-09-01T18:29:35.660Z,15.90
2018-09-01T18:32:04.154Z,15.90
2018-09-01T18:34:32.678Z,15.90
2018-09-01T18:37:01.105Z,15.90
2018-09-01T18:39:29.606Z,15.90
2018-09-01T18:41:58.144Z,15.90
2018-09-01T18:44:26.896Z,15.90
2018-09-01T18:46:55.347Z,15.80
2018-09-01T18:49:23.831Z,15.90
2018-09-01T18:51:52.386Z,15.90
2018-09-01T18:54:20.834Z,15.90
2018-09-01T18:56:49.370Z,15.90
2018-09-01T18:59:17.893Z,15.90
2018-09-01T19:01:46.369Z,15.90
2018-09-01T19:04:14.870Z,15.90
2018-09-01T19:06:43.326Z,15.90
2018-09-01T19:09:11.818Z,15.90
2018-09-01T19:11:40.366Z,15.90
2018-09-01T19:14:08.894Z,15.90
2018-09-01T19:16:37.335Z,15.90
2018-09-01T19:19:05.903Z,15.90
2018-09-01T19:21:34.382Z,15.90
2018-09-01T19:24:02.883Z,15.90
2018-09-01T19:26:31.382Z,15.90
2018-09-01T19:28:59.851Z,15.90
2018-09-01T19:31:28.362Z,15.90
2018-09-01T19:33:56.880Z,15.90
2018-09-01T19:36:25.350Z,15.90
2018-09-01T19:38:53.891Z,15.90
2018-09-01T19:41:22.575Z,15.90
2018-09-01T19:43:51.076Z,15.90
2018-09-01T19:46:19.560Z,15.90
2018-09-01T19:48:48.131Z,15.90
2018-09-01T19:51:16.665Z,15.90
2018-09-01T19:53:45.090Z,15.90
2018-09-01T19:56:13.630Z,15.90
2018-09-01T19:58:42.115Z,15.90
2018-09-01T20:01:10.597Z,15.90
2018-09-01T20:03:39.112Z,15.90
2018-09-01T20:06:07.597Z,15.90
2018-09-01T20:08:36.122Z,15.90
2018-09-01T20:11:04.686Z,15.90
2018-09-01T20:13:33.166Z,15.90
2018-09-01T20:16:01.640Z,15.90
2018-09-01T20:18:30.998Z,15.90
2018-09-01T20:20:59.458Z,15.90
2018-09-01T20:23:28.027Z,15.90
2018-09-01T20:25:56.546Z,15.90
2018-09-01T20:28:25.075Z,15.90
2018-09-01T20:30:53.554Z,15.90
2018-09-01T20:33:22.154Z,15.90
2018-09-01T20:35:56.442Z,15.90
2018-09-01T20:38:25.787Z,15.90
2018-09-01T20:40:54.298Z,15.90
2018-09-01T20:43:22.991Z,15.90
2018-09-01T20:45:51.838Z,15.90
2018-09-01T20:48:20.298Z,15.80
2018-09-01T20:50:48.901Z,15.90
2018-09-01T20:53:17.458Z,15.90
2018-09-01T20:55:45.930Z,15.80
2018-09-01T20:58:14.391Z,15.80
2018-09-01T21:00:42.945Z,15.80
2018-09-01T21:03:11.386Z,15.90
2018-09-01T21:05:39.862Z,15.80
2018-09-01T21:08:08.373Z,15.90
2018-09-01T21:10:36.847Z,15.90
2018-09-01T21:13:05.410Z,15.90
2018-09-01T21:15:33.950Z,15.90
2018-09-01T21:18:02.477Z,15.80
2018-09-01T21:20:30.959Z,15.90
2018-09-01T21:22:59.478Z,15.80
2018-09-01T21:25:27.957Z,15.80
2018-09-01T21:27:56.442Z,15.80
2018-09-01T21:30:25.022Z,15.80
2018-09-01T21:32:53.526Z,15.80
2018-09-01T21:35:22.085Z,15.70
2018-09-01T21:37:50.822Z,15.70
2018-09-01T21:40:19.331Z,15.70
2018-09-01T21:42:47.906Z,15.70
2018-09-01T21:45:16.534Z,15.70
2018-09-01T21:47:45.007Z,15.70
2018-09-01T21:50:13.530Z,15.70
2018-09-01T21:52:42.112Z,15.70
2018-09-01T21:55:10.614Z,15.70
2018-09-01T21:57:39.149Z,15.60
2018-09-01T22:00:09.277Z,15.60
2018-09-01T22:02:37.990Z,15.60
2018-09-01T22:05:12.154Z,15.60
2018-09-01T22:07:40.731Z,15.60
2018-09-01T22:10:09.383Z,15.60
2018-09-01T22:12:37.920Z,15.60
2018-09-01T22:15:06.958Z,15.60
2018-09-01T22:17:35.416Z,15.50
2018-09-01T22:20:04.034Z,15.50
2018-09-01T22:22:32.563Z,15.50
2018-09-01T22:25:01.066Z,15.40
2018-09-01T22:27:29.573Z,15.40
2018-09-01T22:29:58.059Z,15.30
2018-09-01T22:32:26.524Z,15.30
2018-09-01T22:34:55.057Z,15.30
2018-09-01T22:37:23.535Z,15.30
2018-09-01T22:39:51.994Z,15.20
2018-09-01T22:42:20.489Z,15.10
2018-09-01T22:44:48.946Z,15.00
2018-09-01T22:47:20.019Z,15.00
2018-09-01T22:49:48.867Z,14.90
2018-09-01T22:52:17.342Z,14.80
2018-09-01T22:54:45.794Z,14.80
2018-09-01T22:57:14.391Z,14.80
2018-09-01T22:59:42.862Z,14.70
2018-09-01T23:02:11.329Z,14.70
2018-09-01T23:04:39.807Z,14.70
2018-09-01T23:07:08.297Z,14.60
2018-09-01T23:09:36.766Z,14.60
2018-09-01T23:12:05.258Z,14.60
2018-09-01T23:14:33.714Z,14.60
2018-09-01T23:17:02.151Z,14.60
2018-09-01T23:19:30.706Z,14.60
2018-09-01T23:21:59.172Z,14.60
2018-09-01T23:24:27.609Z,14.60
2018-09-01T23:26:56.116Z,14.60
2018-09-01T23:29:24.609Z,14.60
2018-09-01T23:31:53.054Z,14.60
2018-09-01T23:34:21.535Z,14.60
2018-09-01T23:36:50.010Z,14.60
2018-09-01T23:39:18.668Z,14.60
2018-09-01T23:41:47.300Z,14.60
2018-09-01T23:44:15.766Z,14.70
2018-09-01T23:46:44.250Z,14.60
2018-09-01T23:49:12.748Z,14.70
2018-09-01T23:51:41.260Z,14.70
2018-09-01T23:54:09.758Z,14.80
2018-09-01T23:56:38.270Z,14.80
2018-09-01T23:59:06.771Z,14.80
